createdAt,value
2024-05-09T00:00:41.255Z,98.90
2024-05-09T00:03:27.395Z,99.00
2024-05-09T00:06:13.207Z,99.10
2024-05-09T00:08:58.684Z,99.00
2024-05-09T00:11:44.515Z,99.20
2024-05-09T00:14:30.267Z,99.30
2024-05-09T00:17:16.230Z,99.20
2024-05-09T00:20:02.004Z,99.10
2024-05-09T00:22:47.678Z,99.30
2024-05-09T00:25:33.257Z,99.20
2024-05-09T00:28:18.788Z,99.10
2024-05-09T00:31:04.632Z,99.10
2024-05-09T00:33:50.057Z,99.30
2024-05-09T00:36:35.406Z,99.40
2024-05-09T00:39:21.089Z,99.40
2024-05-09T00:42:06.491Z,98.80
2024-05-09T00:44:52.163Z,99.30
2024-05-09T00:47:38.075Z,98.90
2024-05-09T00:50:29.962Z,98.90
2024-05-09T00:53:21.467Z,98.80
2024-05-09T00:56:09.711Z,98.80
2024-05-09T00:58:55.833Z,98.90
2024-05-09T01:01:43.050Z,98.80
2024-05-09T01:04:28.837Z,99.00
2024-05-09T01:07:14.497Z,99.10
2024-05-09T01:09:59.860Z,99.10
2024-05-09T01:12:45.831Z,99.30
2024-05-09T01:15:31.440Z,98.80
2024-05-09T01:18:17.137Z,99.00
2024-05-09T01:21:04.408Z,99.10
2024-05-09T01:23:56.011Z,99.10
2024-05-09T01:26:41.650Z,98.70
2024-05-09T01:29:27.120Z,98.90
2024-05-09T01:32:12.710Z,99.10
2024-05-09T01:34:58.086Z,99.10
2024-05-09T01:37:46.325Z,98.70
2024-05-09T01:40:37.582Z,98.80
2024-05-09T01:43:25.682Z,99.20
2024-05-09T01:46:17.347Z,99.40
2024-05-09T01:49:04.584Z,99.60
2024-05-09T01:51:50.505Z,99.30
2024-05-09T01:54:37.242Z,99.40
2024-05-09T01:57:22.659Z,99.30
2024-05-09T02:00:10.411Z,99.40
2024-05-09T02:02:56.580Z,99.40
2024-05-09T02:05:43.301Z,99.70
2024-05-09T02:08:29.280Z,99.80
2024-05-09T02:11:14.885Z,99.70
2024-05-09T02:14:00.386Z,99.50
2024-05-09T02:16:46.753Z,99.80
2024-05-09T02:19:32.759Z,99.90
2024-05-09T02:22:18.302Z,99.90
2024-05-09T02:25:04.429Z,99.80
2024-05-09T02:27:50.242Z,99.70
2024-05-09T02:30:40.462Z,99.90
2024-05-09T02:33:28.496Z,99.90
2024-05-09T02:36:14.417Z,99.90
2024-05-09T02:39:00.115Z,99.80
2024-05-09T02:41:45.606Z,99.90
2024-05-09T02:44:31.358Z,99.90
2024-05-09T02:47:16.794Z,99.60
2024-05-09T02:50:02.509Z,99.50
2024-05-09T02:52:48.383Z,99.30
2024-05-09T02:55:34.607Z,99.20
2024-05-09T02:58:20.087Z,99.20
2024-05-09T03:01:05.734Z,99.80
2024-05-09T03:03:52.197Z,99.50
2024-05-09T03:06:42.004Z,99.60
2024-05-09T03:09:28.013Z,99.40
2024-05-09T03:12:14.110Z,99.90
2024-05-09T03:14:59.643Z,99.90
2024-05-09T03:17:46.173Z,99.90
2024-05-09T03:20:34.976Z,99.80
2024-05-09T03:23:21.933Z,99.50
2024-05-09T03:26:16.109Z,99.50
2024-05-09T03:29:01.655Z,99.70
2024-05-09T03:31:47.358Z,99.80
2024-05-09T03:34:32.955Z,99.90
2024-05-09T03:37:18.309Z,99.90
2024-05-09T03:40:07.358Z,99.80
2024-05-09T03:42:57.065Z,99.70
2024-05-09T03:45:43.486Z,99.90
2024-05-09T03:48:29.171Z,99.90
2024-05-09T03:51:15.386Z,99.90
2024-05-09T03:54:00.896Z,99.70
2024-05-09T03:56:46.572Z,99.70
2024-05-09T03:59:32.039Z,99.70
2024-05-09T04:02:17.644Z,99.60
2024-05-09T04:05:03.226Z,99.90
2024-05-09T04:07:48.631Z,99.90
2024-05-09T04:10:35.261Z,99.90
2024-05-09T04:13:20.796Z,99.90
2024-05-09T04:16:09.161Z,99.90
2024-05-09T04:18:54.686Z,99.90
2024-05-09T04:21:40.314Z,99.90
2024-05-09T04:24:25.822Z,99.90
2024-05-09T04:27:11.593Z,99.90
2024-05-09T04:29:56.971Z,99.90
2024-05-09T04:32:42.774Z,99.90
2024-05-09T04:35:28.604Z,99.90
2024-05-09T04:38:14.757Z,99.90
2024-05-09T04:41:01.152Z,99.90
2024-05-09T04:43:46.430Z,99.90
2024-05-09T04:46:32.136Z,99.90
2024-05-09T04:49:17.997Z,99.90
2024-05-09T04:52:03.839Z,99.90
2024-05-09T04:54:49.373Z,99.90
2024-05-09T04:57:34.892Z,99.90
2024-05-09T05:00:28.497Z,99.90
2024-05-09T05:03:20.772Z,99.90
2024-05-09T05:06:06.594Z,99.90
2024-05-09T05:08:52.123Z,99.90
2024-05-09T05:11:37.715Z,99.90
2024-05-09T05:14:23.093Z,99.90
2024-05-09T05:17:08.624Z,99.90
2024-05-09T05:19:54.437Z,99.90
2024-05-09T05:22:43.176Z,99.90
2024-05-09T05:25:29.095Z,99.90
2024-05-09T05:28:19.712Z,99.90
2024-05-09T05:31:05.733Z,99.90
2024-05-09T05:33:51.103Z,99.90
2024-05-09T05:36:36.445Z,99.90
2024-05-09T05:39:22.077Z,99.90
2024-05-09T05:42:07.897Z,99.90
2024-05-09T05:44:55.366Z,99.90
2024-05-09T05:47:41.367Z,99.90
2024-05-09T05:50:32.855Z,99.90
2024-05-09T05:53:21.886Z,99.90
2024-05-09T05:56:07.421Z,99.90
2024-05-09T05:58:53.166Z,99.90
2024-05-09T06:01:38.627Z,99.90
2024-05-09T06:04:24.211Z,99.90
2024-05-09T06:07:09.738Z,99.90
2024-05-09T06:09:56.062Z,99.90
2024-05-09T06:12:41.856Z,99.90
2024-05-09T06:15:28.097Z,99.90
2024-05-09T06:18:14.400Z,99.90
2024-05-09T06:21:00.408Z,99.90
2024-05-09T06:23:47.147Z,99.90
2024-05-09T06:26:33.708Z,99.90
2024-05-09T06:29:19.382Z,99.90
2024-05-09T06:32:05.505Z,99.90
2024-05-09T06:34:51.460Z,99.90
2024-05-09T06:37:37.021Z,99.90
2024-05-09T06:40:25.898Z,99.90
2024-05-09T06:43:20.060Z,99.90
2024-05-09T06:46:05.717Z,99.90
2024-05-09T06:48:52.721Z,99.90
2024-05-09T06:51:38.905Z,99.90
2024-05-09T06:54:24.508Z,99.90
2024-05-09T06:57:10.133Z,99.90
2024-05-09T06:59:59.708Z,99.90
2024-05-09T07:02:45.995Z,99.90
2024-05-09T07:05:31.822Z,99.90
2024-05-09T07:08:17.866Z,99.90
2024-05-09T07:11:04.494Z,99.90
2024-05-09T07:13:50.303Z,99.90
2024-05-09T07:16:35.913Z,99.90
2024-05-09T07:19:21.624Z,99.90
2024-05-09T07:22:07.312Z,99.90
2024-05-09T07:24:53.849Z,99.90
2024-05-09T07:27:39.787Z,99.90
2024-05-09T07:30:32.715Z,99.90
2024-05-09T07:33:22.557Z,99.90
2024-05-09T07:36:09.546Z,99.90
2024-05-09T07:38:55.335Z,99.90
2024-05-09T07:41:40.756Z,99.90
2024-05-09T07:44:26.530Z,99.90
2024-05-09T07:48:27.658Z,99.90
2024-05-09T07:53:36.365Z,99.90
2024-05-09T07:56:12.176Z,99.90
2024-05-09T07:58:58.083Z,99.90
2024-05-09T08:01:44.110Z,99.90
2024-05-09T08:04:30.127Z,99.90
2024-05-09T08:07:18.862Z,99.90
2024-05-09T08:10:06.571Z,99.90
2024-05-09T08:12:54.002Z,99.90
2024-05-09T08:15:39.988Z,99.90
2024-05-09T08:18:26.888Z,99.90
2024-05-09T08:21:12.312Z,99.90
2024-05-09T08:23:57.788Z,99.90
2024-05-09T08:26:43.338Z,99.90
2024-05-09T08:29:28.874Z,99.90
2024-05-09T08:32:14.509Z,99.90
2024-05-09T08:35:04.586Z,99.90
2024-05-09T08:37:50.388Z,99.90
2024-05-09T08:40:37.766Z,99.90
2024-05-09T08:43:26.681Z,99.80
2024-05-09T08:46:13.517Z,99.70
2024-05-09T08:49:00.799Z,98.70
2024-05-09T08:51:46.816Z,98.00
2024-05-09T08:54:32.604Z,97.50
2024-05-09T08:57:19.146Z,97.80
2024-05-09T09:00:10.320Z,98.40
2024-05-09T09:03:00.945Z,98.60
2024-05-09T09:06:02.451Z,97.00
2024-05-09T09:08:49.369Z,96.60
2024-05-09T09:11:35.293Z,95.60
2024-05-09T09:14:20.757Z,95.90
2024-05-09T09:17:15.738Z,94.80
2024-05-09T09:20:01.289Z,94.70
2024-05-09T09:22:46.666Z,91.30
2024-05-09T09:25:32.358Z,90.10
2024-05-09T09:28:18.249Z,87.90
2024-05-09T09:31:04.648Z,84.30
2024-05-09T09:33:50.808Z,84.70
2024-05-09T09:36:39.265Z,84.20
2024-05-09T09:39:29.811Z,83.50
2024-05-09T09:42:18.245Z,83.70
2024-05-09T09:45:05.885Z,78.60
2024-05-09T09:47:56.396Z,76.20
2024-05-09T09:50:43.207Z,76.20
2024-05-09T09:53:29.345Z,73.90
2024-05-09T09:56:17.953Z,72.60
2024-05-09T09:59:05.138Z,73.10
2024-05-09T10:01:51.057Z,70.20
2024-05-09T10:04:36.889Z,69.40
2024-05-09T10:07:23.142Z,71.20
2024-05-09T10:10:13.744Z,71.90
2024-05-09T10:13:05.312Z,68.10
2024-05-09T10:15:53.181Z,66.60
2024-05-09T10:18:40.846Z,66.70
2024-05-09T10:21:27.028Z,65.70
2024-05-09T10:24:12.995Z,66.10
2024-05-09T10:26:58.700Z,66.40
2024-05-09T10:29:57.711Z,62.30
2024-05-09T10:32:45.052Z,60.00
2024-05-09T10:35:32.017Z,61.40
2024-05-09T10:38:18.160Z,60.10
2024-05-09T10:41:03.872Z,59.80
2024-05-09T10:43:51.255Z,60.00
2024-05-09T10:46:36.924Z,58.30
2024-05-09T10:49:22.538Z,57.00
2024-05-09T10:52:08.850Z,58.10
2024-05-09T10:54:55.006Z,57.90
2024-05-09T10:57:41.180Z,58.00
2024-05-09T11:00:35.761Z,57.60
2024-05-09T11:03:25.975Z,58.10
2024-05-09T11:06:11.995Z,56.20
2024-05-09T11:09:00.652Z,55.50
2024-05-09T11:11:46.211Z,55.60
2024-05-09T11:14:31.920Z,55.80
2024-05-09T11:17:17.448Z,56.00
2024-05-09T11:20:10.490Z,54.80
2024-05-09T11:22:59.126Z,52.20
2024-05-09T11:25:52.679Z,52.80
2024-05-09T11:28:38.689Z,53.10
2024-05-09T11:31:24.838Z,52.90
2024-05-09T11:34:10.508Z,53.50
2024-05-09T11:36:56.083Z,54.70
2024-05-09T11:39:41.815Z,55.20
2024-05-09T11:42:27.559Z,56.50
2024-05-09T11:45:13.159Z,55.60
2024-05-09T11:47:58.748Z,55.70
2024-05-09T11:50:44.633Z,56.40
2024-05-09T11:53:30.232Z,56.00
2024-05-09T11:56:17.411Z,55.60
2024-05-09T11:59:03.177Z,54.00
2024-05-09T12:01:49.124Z,53.20
2024-05-09T12:04:35.182Z,52.20
2024-05-09T12:07:22.845Z,52.50
2024-05-09T12:10:14.163Z,52.10
2024-05-09T12:13:06.571Z,50.40
2024-05-09T12:15:54.197Z,50.30
2024-05-09T12:18:39.922Z,49.90
2024-05-09T12:21:25.408Z,51.20
2024-05-09T12:24:11.061Z,49.90
2024-05-09T12:26:57.426Z,50.20
2024-05-09T12:29:46.054Z,49.00
2024-05-09T12:32:31.895Z,47.30
2024-05-09T12:35:17.348Z,47.60
2024-05-09T12:38:03.632Z,46.30
2024-05-09T12:40:49.370Z,45.50
2024-05-09T12:43:35.239Z,46.20
2024-05-09T12:46:20.809Z,45.80
2024-05-09T12:49:06.395Z,46.20
2024-05-09T12:51:52.679Z,45.60
2024-05-09T12:54:38.031Z,46.30
2024-05-09T12:57:23.676Z,47.00
2024-05-09T13:00:20.206Z,47.50
2024-05-09T13:03:09.440Z,47.90
2024-05-09T13:05:55.441Z,49.10
2024-05-09T13:08:40.950Z,49.10
2024-05-09T13:11:26.644Z,49.50
2024-05-09T13:14:12.289Z,49.70
2024-05-09T13:16:57.920Z,48.80
2024-05-09T13:19:43.441Z,49.20
2024-05-09T13:22:29.276Z,49.60
2024-05-09T13:25:15.339Z,50.20
2024-05-09T13:28:01.516Z,50.70
2024-05-09T13:30:47.087Z,51.30
2024-05-09T13:33:33.458Z,52.30
2024-05-09T13:36:19.067Z,53.20
2024-05-09T13:39:04.699Z,54.50
2024-05-09T13:41:50.288Z,55.30
2024-05-09T13:44:35.873Z,55.70
2024-05-09T13:47:22.257Z,55.30
2024-05-09T13:50:16.776Z,55.20
2024-05-09T13:53:09.185Z,54.20
2024-05-09T13:55:55.223Z,51.60
2024-05-09T13:58:42.144Z,52.10
2024-05-09T14:01:27.667Z,50.10
2024-05-09T14:04:13.495Z,47.60
2024-05-09T14:06:59.367Z,47.20
2024-05-09T14:09:48.235Z,47.00
2024-05-09T14:12:36.702Z,46.50
2024-05-09T14:15:22.145Z,44.40
2024-05-09T14:18:12.283Z,43.60
2024-05-09T14:20:59.681Z,41.20
2024-05-09T14:23:45.352Z,39.20
2024-05-09T14:26:30.923Z,40.30
2024-05-09T14:29:16.601Z,40.10
2024-05-09T14:32:05.240Z,40.70
2024-05-09T14:34:50.895Z,42.30
2024-05-09T14:37:39.302Z,41.50
2024-05-09T14:40:36.853Z,41.10
2024-05-09T14:43:27.200Z,40.80
2024-05-09T14:46:13.282Z,41.30
2024-05-09T14:49:00.102Z,38.10
2024-05-09T14:51:47.973Z,38.10
2024-05-09T14:54:33.666Z,37.50
2024-05-09T14:57:22.166Z,35.20
2024-05-09T15:00:16.979Z,34.30
2024-05-09T15:03:07.165Z,33.80
2024-05-09T15:05:53.089Z,35.50
2024-05-09T15:08:38.826Z,35.50
2024-05-09T15:11:24.896Z,33.80
2024-05-09T15:14:10.616Z,33.00
2024-05-09T15:16:57.249Z,32.10
2024-05-09T15:19:45.270Z,31.00
2024-05-09T15:22:30.960Z,30.10
2024-05-09T15:25:16.656Z,30.10
2024-05-09T15:28:02.318Z,29.30
2024-05-09T15:30:57.427Z,29.20
2024-05-09T15:33:43.281Z,29.90
2024-05-09T15:36:31.608Z,28.90
2024-05-09T15:39:17.577Z,29.00
2024-05-09T15:42:03.500Z,27.80
2024-05-09T15:44:53.107Z,28.00
2024-05-09T15:47:41.775Z,27.80
2024-05-09T15:50:36.421Z,28.00
2024-05-09T15:53:25.420Z,27.10
2024-05-09T15:56:10.986Z,27.20
2024-05-09T15:58:56.599Z,27.30
2024-05-09T16:01:45.532Z,27.80
2024-05-09T16:04:31.573Z,27.10
2024-05-09T16:07:17.359Z,27.50
2024-05-09T16:10:06.565Z,27.90
2024-05-09T16:12:52.544Z,27.30
2024-05-09T16:15:37.930Z,26.70
2024-05-09T16:18:23.627Z,27.00
2024-05-09T16:21:09.103Z,27.50
2024-05-09T16:23:54.927Z,27.40
2024-05-09T16:26:40.602Z,25.80
2024-05-09T16:29:26.668Z,26.10
2024-05-09T16:32:12.343Z,26.70
2024-05-09T16:34:57.779Z,26.60
2024-05-09T16:37:45.077Z,25.40
2024-05-09T16:40:37.811Z,26.10
2024-05-09T16:43:26.600Z,26.20
2024-05-09T16:46:12.130Z,25.90
2024-05-09T16:48:57.902Z,26.00
2024-05-09T16:51:43.493Z,26.00
2024-05-09T16:54:28.898Z,27.40
2024-05-09T16:57:17.537Z,28.30
2024-05-09T17:00:09.255Z,29.40
2024-05-09T17:02:57.332Z,31.10
2024-05-09T17:05:43.485Z,32.30
2024-05-09T17:08:29.237Z,33.40
2024-05-09T17:11:15.541Z,33.80
2024-05-09T17:14:01.104Z,33.80
2024-05-09T17:16:46.862Z,34.90
2024-05-09T17:19:32.458Z,36.80
2024-05-09T17:22:17.972Z,38.60
2024-05-09T17:25:04.230Z,39.80
2024-05-09T17:27:49.971Z,41.10
2024-05-09T17:30:38.411Z,42.30
2024-05-09T17:33:26.373Z,43.50
2024-05-09T17:36:11.956Z,44.70
2024-05-09T17:38:57.651Z,45.80
2024-05-09T17:41:46.520Z,46.60
2024-05-09T17:44:32.363Z,46.90
2024-05-09T17:47:17.981Z,47.70
2024-05-09T17:50:05.563Z,48.60
2024-05-09T17:52:53.659Z,48.70
2024-05-09T17:55:40.558Z,49.00
2024-05-09T17:58:26.503Z,49.00
2024-05-09T18:01:14.003Z,48.80
2024-05-09T18:03:59.752Z,49.20
2024-05-09T18:06:45.639Z,49.20
2024-05-09T18:09:31.657Z,49.50
2024-05-09T18:12:17.382Z,50.10
2024-05-09T18:15:03.011Z,50.90
2024-05-09T18:17:48.690Z,50.50
2024-05-09T18:20:41.984Z,48.90
2024-05-09T18:23:31.344Z,48.50
2024-05-09T18:26:17.130Z,49.70
2024-05-09T18:29:03.646Z,50.50
2024-05-09T18:31:49.329Z,51.30
2024-05-09T18:34:34.848Z,52.10
2024-05-09T18:37:23.610Z,52.80
2024-05-09T18:40:14.887Z,53.50
2024-05-09T18:43:05.949Z,54.20
2024-05-09T18:45:52.868Z,54.40
2024-05-09T18:48:38.613Z,53.50
2024-05-09T18:51:24.496Z,52.80
2024-05-09T18:54:13.101Z,52.30
2024-05-09T18:56:58.923Z,52.30
2024-05-09T18:59:46.837Z,51.70
2024-05-09T19:02:32.446Z,51.80
2024-05-09T19:05:18.638Z,52.30
2024-05-09T19:08:04.507Z,53.00
2024-05-09T19:10:52.340Z,53.50
2024-05-09T19:13:38.145Z,54.10
2024-05-09T19:16:23.934Z,54.80
2024-05-09T19:19:09.993Z,55.20
2024-05-09T19:21:57.924Z,56.40
2024-05-09T19:24:43.275Z,57.10
2024-05-09T19:27:28.880Z,58.70
2024-05-09T19:30:21.874Z,58.80
2024-05-09T19:33:15.840Z,59.30
2024-05-09T19:36:01.383Z,59.70
2024-05-09T19:38:48.261Z,60.50
2024-05-09T19:41:34.071Z,61.00
2024-05-09T19:44:19.872Z,61.30
2024-05-09T19:47:08.175Z,61.40
2024-05-09T19:49:53.760Z,61.80
2024-05-09T19:52:39.606Z,63.00
2024-05-09T19:55:25.003Z,63.10
2024-05-09T19:58:12.049Z,63.50
2024-05-09T20:00:58.387Z,63.90
2024-05-09T20:03:44.226Z,64.40
2024-05-09T20:06:30.692Z,65.20
2024-05-09T20:09:16.531Z,65.80
2024-05-09T20:12:03.527Z,66.80
2024-05-09T20:14:49.191Z,67.00
2024-05-09T20:17:35.003Z,67.90
2024-05-09T20:20:28.654Z,68.10
2024-05-09T20:23:22.293Z,68.40
2024-05-09T20:26:08.936Z,68.70
2024-05-09T20:28:54.522Z,68.70
2024-05-09T20:31:41.290Z,68.80
2024-05-09T20:34:26.934Z,69.70
2024-05-09T20:37:12.673Z,70.60
2024-05-09T20:39:58.511Z,71.00
2024-05-09T20:42:47.022Z,71.30
2024-05-09T20:45:32.814Z,71.90
2024-05-09T20:48:18.724Z,72.50
2024-05-09T20:51:04.945Z,73.30
2024-05-09T20:53:50.364Z,73.70
2024-05-09T20:56:36.153Z,74.30
2024-05-09T20:59:21.768Z,74.90
2024-05-09T21:02:07.698Z,75.20
2024-05-09T21:04:53.875Z,75.50
2024-05-09T21:07:39.595Z,75.90
2024-05-09T21:13:12.203Z,76.50
2024-05-09T21:15:57.824Z,77.30
2024-05-09T21:18:43.442Z,77.40
2024-05-09T21:21:28.646Z,78.00
2024-05-09T21:24:14.463Z,78.60
2024-05-09T21:27:00.132Z,79.10
2024-05-09T21:29:45.867Z,79.10
2024-05-09T21:32:31.322Z,79.50
2024-05-09T21:35:18.056Z,79.60
2024-05-09T21:38:04.568Z,80.00
2024-05-09T21:40:50.365Z,80.30
2024-05-09T21:43:37.753Z,80.50
2024-05-09T21:46:23.830Z,81.00
2024-05-09T21:49:10.871Z,81.00
2024-05-09T21:51:56.639Z,81.50
2024-05-09T21:54:42.090Z,81.70
2024-05-09T21:57:27.560Z,82.00
2024-05-09T22:00:28.273Z,82.40
2024-05-09T22:03:20.709Z,82.60
2024-05-09T22:06:06.339Z,82.50
2024-05-09T22:08:52.067Z,82.50
2024-05-09T22:11:37.758Z,82.40
2024-05-09T22:14:23.204Z,82.50
2024-05-09T22:17:08.869Z,83.00
2024-05-09T22:19:54.399Z,83.40
2024-05-09T22:22:41.439Z,83.80
2024-05-09T22:25:29.593Z,84.20
2024-05-09T22:28:16.205Z,84.60
2024-05-09T22:31:02.186Z,84.90
2024-05-09T22:33:48.510Z,84.90
2024-05-09T22:36:34.662Z,85.00
2024-05-09T22:39:23.340Z,85.40
2024-05-09T22:42:09.319Z,85.70
2024-05-09T22:44:54.894Z,85.70
2024-05-09T22:47:40.751Z,85.90
2024-05-09T22:50:30.626Z,86.10
2024-05-09T22:53:18.451Z,86.10
2024-05-09T22:56:04.311Z,86.20
2024-05-09T22:58:49.989Z,86.40
2024-05-09T23:01:35.511Z,86.70
2024-05-09T23:04:24.601Z,86.80
2024-05-09T23:07:10.596Z,86.80
2024-05-09T23:09:56.241Z,87.40
2024-05-09T23:12:41.783Z,87.50
2024-05-09T23:15:27.267Z,87.50
2024-05-09T23:18:13.037Z,87.80
2024-05-09T23:21:01.817Z,88.10
2024-05-09T23:23:47.947Z,88.50
2024-05-09T23:26:33.755Z,88.50
2024-05-09T23:29:19.179Z,88.60
2024-05-09T23:32:05.025Z,88.80
2024-05-09T23:34:50.878Z,89.40
2024-05-09T23:37:36.355Z,89.50
2024-05-09T23:40:23.434Z,89.90
2024-05-09T23:43:11.144Z,90.10
2024-05-09T23:45:57.526Z,90.20
2024-05-09T23:48:43.115Z,90.30
2024-05-09T23:51:28.660Z,90.60
2024-05-09T23:54:14.180Z,90.60
2024-05-09T23:56:59.751Z,90.70
2024-05-09T23:59:45.461Z,90.80
